sensor_id;sensor_type;location;lat;lon;timestamp;temperature;humidity
19496;DHT22;9888;48.606;9.630;2022-08-07T00:01:26;10.10;99.90
19496;DHT22;9888;48.606;9.630;2022-08-07T00:03:53;10.10;99.90
19496;DHT22;9888;48.606;9.630;2022-08-07T00:06:21;10.10;99.90
19496;DHT22;9888;48.606;9.630;2022-08-07T00:08:53;10.10;99.90
19496;DHT22;9888;48.606;9.630;2022-08-07T00:11:20;10.10;99.90
19496;DHT22;9888;48.606;9.630;2022-08-07T00:13:47;10.10;99.90
19496;DHT22;9888;48.606;9.630;2022-08-07T00:16:15;10.00;99.90
19496;DHT22;9888;48.606;9.630;2022-08-07T00:18:42;10.00;99.90
19496;DHT22;9888;48.606;9.630;2022-08-07T00:21:10;10.00;99.90
19496;DHT22;9888;48.606;9.630;2022-08-07T00:23:39;9.90;99.90
19496;DHT22;9888;48.606;9.630;2022-08-07T00:26:09;9.90;99.90
19496;DHT22;9888;48.606;9.630;2022-08-07T00:28:37;9.90;99.90
19496;DHT22;9888;48.606;9.630;2022-08-07T00:37:47;10.00;99.90
19496;DHT22;9888;48.606;9.630;2022-08-07T00:40:34;10.00;99.90
19496;DHT22;9888;48.606;9.630;2022-08-07T00:43:05;10.00;99.90
19496;DHT22;9888;48.606;9.630;2022-08-07T00:45:33;10.10;99.90
19496;DHT22;9888;48.606;9.630;2022-08-07T00:48:00;10.10;99.90
19496;DHT22;9888;48.606;9.630;2022-08-07T00:50:28;10.10;99.90
19496;DHT22;9888;48.606;9.630;2022-08-07T00:52:56;10.10;99.90
19496;DHT22;9888;48.606;9.630;2022-08-07T00:55:24;10.10;99.90
19496;DHT22;9888;48.606;9.630;2022-08-07T00:57:53;10.10;99.90
19496;DHT22;9888;48.606;9.630;2022-08-07T01:00:20;10.10;99.90
19496;DHT22;9888;48.606;9.630;2022-08-07T01:02:48;10.00;99.90
19496;DHT22;9888;48.606;9.630;2022-08-07T01:05:17;10.00;99.90
19496;DHT22;9888;48.606;9.630;2022-08-07T01:07:46;10.00;99.90
19496;DHT22;9888;48.606;9.630;2022-08-07T01:10:13;10.00;99.90
19496;DHT22;9888;48.606;9.630;2022-08-07T01:12:42;10.00;99.90
19496;DHT22;9888;48.606;9.630;2022-08-07T01:15:10;10.00;99.90
19496;DHT22;9888;48.606;9.630;2022-08-07T01:17:37;10.00;99.90
19496;DHT22;9888;48.606;9.630;2022-08-07T01:20:07;10.00;99.90
19496;DHT22;9888;48.606;9.630;2022-08-07T01:25:43;9.90;99.90
19496;DHT22;9888;48.606;9.630;2022-08-07T01:28:11;9.90;99.90
19496;DHT22;9888;48.606;9.630;2022-08-07T01:30:41;9.90;99.90
19496;DHT22;9888;48.606;9.630;2022-08-07T01:33:09;9.80;99.90
19496;DHT22;9888;48.606;9.630;2022-08-07T01:35:37;9.90;99.90
19496;DHT22;9888;48.606;9.630;2022-08-07T01:38:06;9.90;99.90
19496;DHT22;9888;48.606;9.630;2022-08-07T01:40:34;9.90;99.90
19496;DHT22;9888;48.606;9.630;2022-08-07T01:43:09;9.90;99.90
19496;DHT22;9888;48.606;9.630;2022-08-07T01:45:37;9.90;99.90
19496;DHT22;9888;48.606;9.630;2022-08-07T01:48:06;9.80;99.90
19496;DHT22;9888;48.606;9.630;2022-08-07T01:50:36;9.80;99.90
19496;DHT22;9888;48.606;9.630;2022-08-07T01:53:05;9.80;99.90
19496;DHT22;9888;48.606;9.630;2022-08-07T01:55:38;9.80;99.90
19496;DHT22;9888;48.606;9.630;2022-08-07T01:58:10;9.80;99.90
19496;DHT22;9888;48.606;9.630;2022-08-07T02:00:41;9.80;99.90
19496;DHT22;9888;48.606;9.630;2022-08-07T02:03:15;9.70;99.90
19496;DHT22;9888;48.606;9.630;2022-08-07T02:05:55;9.80;99.90
19496;DHT22;9888;48.606;9.630;2022-08-07T02:08:25;9.70;99.90
19496;DHT22;9888;48.606;9.630;2022-08-07T02:10:54;9.70;99.90
19496;DHT22;9888;48.606;9.630;2022-08-07T02:13:30;9.70;99.90
19496;DHT22;9888;48.606;9.630;2022-08-07T02:16:00;9.70;99.90
19496;DHT22;9888;48.606;9.630;2022-08-07T02:18:31;9.70;99.90
19496;DHT22;9888;48.606;9.630;2022-08-07T02:21:04;9.70;99.90
19496;DHT22;9888;48.606;9.630;2022-08-07T02:23:36;9.80;99.90
19496;DHT22;9888;48.606;9.630;2022-08-07T02:26:05;9.70;99.90
19496;DHT22;9888;48.606;9.630;2022-08-07T02:28:35;9.70;99.90
19496;DHT22;9888;48.606;9.630;2022-08-07T02:31:05;9.80;99.90
19496;DHT22;9888;48.606;9.630;2022-08-07T02:33:35;9.80;99.90
19496;DHT22;9888;48.606;9.630;2022-08-07T02:36:04;9.80;99.90
19496;DHT22;9888;48.606;9.630;2022-08-07T02:38:36;9.80;99.90
19496;DHT22;9888;48.606;9.630;2022-08-07T02:41:05;9.80;99.90
19496;DHT22;9888;48.606;9.630;2022-08-07T02:43:35;9.80;99.90
19496;DHT22;9888;48.606;9.630;2022-08-07T02:46:05;9.80;99.90
19496;DHT22;9888;48.606;9.630;2022-08-07T02:48:33;9.80;99.90
19496;DHT22;9888;48.606;9.630;2022-08-07T02:51:08;9.90;99.90
19496;DHT22;9888;48.606;9.630;2022-08-07T02:53:42;9.90;99.90
19496;DHT22;9888;48.606;9.630;2022-08-07T02:56:14;10.00;99.90
19496;DHT22;9888;48.606;9.630;2022-08-07T02:58:45;10.00;99.90
19496;DHT22;9888;48.606;9.630;2022-08-07T03:01:14;10.10;99.90
19496;DHT22;9888;48.606;9.630;2022-08-07T03:03:43;10.10;99.90
19496;DHT22;9888;48.606;9.630;2022-08-07T03:06:14;10.20;99.90
19496;DHT22;9888;48.606;9.630;2022-08-07T03:08:43;10.30;99.90
19496;DHT22;9888;48.606;9.630;2022-08-07T03:11:10;10.40;99.90
19496;DHT22;9888;48.606;9.630;2022-08-07T03:13:38;10.50;99.90
19496;DHT22;9888;48.606;9.630;2022-08-07T03:16:07;10.80;99.90
19496;DHT22;9888;48.606;9.630;2022-08-07T03:18:35;10.90;99.90
19496;DHT22;9888;48.606;9.630;2022-08-07T03:21:05;11.10;99.90
19496;DHT22;9888;48.606;9.630;2022-08-07T03:23:38;11.10;99.90
19496;DHT22;9888;48.606;9.630;2022-08-07T03:26:10;11.30;99.90
19496;DHT22;9888;48.606;9.630;2022-08-07T03:28:45;11.40;99.90
19496;DHT22;9888;48.606;9.630;2022-08-07T03:31:31;11.60;99.90
19496;DHT22;9888;48.606;9.630;2022-08-07T03:37:04;11.70;99.90
19496;DHT22;9888;48.606;9.630;2022-08-07T03:39:54;11.90;99.90
19496;DHT22;9888;48.606;9.630;2022-08-07T03:42:24;11.80;99.90
19496;DHT22;9888;48.606;9.630;2022-08-07T03:44:55;11.80;99.90
19496;DHT22;9888;48.606;9.630;2022-08-07T03:47:28;11.70;99.90
19496;DHT22;9888;48.606;9.630;2022-08-07T03:50:10;11.70;99.90
19496;DHT22;9888;48.606;9.630;2022-08-07T03:52:38;11.70;99.90
19496;DHT22;9888;48.606;9.630;2022-08-07T03:55:07;11.80;99.90
19496;DHT22;9888;48.606;9.630;2022-08-07T03:57:36;11.90;99.90
19496;DHT22;9888;48.606;9.630;2022-08-07T04:03:16;12.30;99.90
19496;DHT22;9888;48.606;9.630;2022-08-07T04:05:47;12.60;99.90
19496;DHT22;9888;48.606;9.630;2022-08-07T13:21:45;31.60;78.50
19496;DHT22;9888;48.606;9.630;2022-08-07T13:24:48;31.00;77.00
19496;DHT22;9888;48.606;9.630;2022-08-07T13:31:00;30.90;71.60
19496;DHT22;9888;48.606;9.630;2022-08-07T13:33:46;30.60;70.50
19496;DHT22;9888;48.606;9.630;2022-08-07T13:36:36;31.20;70.70
19496;DHT22;9888;48.606;9.630;2022-08-07T13:42:15;32.10;72.00
19496;DHT22;9888;48.606;9.630;2022-08-07T13:45:04;32.10;72.70
19496;DHT22;9888;48.606;9.630;2022-08-07T13:47:37;32.00;74.50
19496;DHT22;9888;48.606;9.630;2022-08-07T13:50:09;31.70;71.50
19496;DHT22;9888;48.606;9.630;2022-08-07T13:52:43;32.10;74.30
19496;DHT22;9888;48.606;9.630;2022-08-07T13:55:22;32.80;72.90
19496;DHT22;9888;48.606;9.630;2022-08-07T13:58:17;33.30;67.00
19496;DHT22;9888;48.606;9.630;2022-08-07T14:01:18;33.00;72.20
19496;DHT22;9888;48.606;9.630;2022-08-07T14:03:56;33.30;69.10
19496;DHT22;9888;48.606;9.630;2022-08-07T14:06:33;33.50;67.30
19496;DHT22;9888;48.606;9.630;2022-08-07T14:09:17;33.10;69.80
19496;DHT22;9888;48.606;9.630;2022-08-07T14:15:37;34.30;68.00
19496;DHT22;9888;48.606;9.630;2022-08-07T14:21:42;33.80;65.90
19496;DHT22;9888;48.606;9.630;2022-08-07T14:27:14;33.00;67.20
19496;DHT22;9888;48.606;9.630;2022-08-07T14:29:51;32.80;67.30
19496;DHT22;9888;48.606;9.630;2022-08-07T14:32:25;33.40;68.80
19496;DHT22;9888;48.606;9.630;2022-08-07T14:34:57;34.00;66.20
19496;DHT22;9888;48.606;9.630;2022-08-07T14:37:28;33.70;64.30
19496;DHT22;9888;48.606;9.630;2022-08-07T14:40:01;32.90;62.90
19496;DHT22;9888;48.606;9.630;2022-08-07T14:42:31;32.50;65.40
19496;DHT22;9888;48.606;9.630;2022-08-07T14:45:05;31.80;67.90
19496;DHT22;9888;48.606;9.630;2022-08-07T14:47:39;31.10;68.20
19496;DHT22;9888;48.606;9.630;2022-08-07T14:50:12;30.60;70.00
19496;DHT22;9888;48.606;9.630;2022-08-07T14:52:45;30.20;69.00
19496;DHT22;9888;48.606;9.630;2022-08-07T14:55:42;30.00;68.00
19496;DHT22;9888;48.606;9.630;2022-08-07T14:58:39;30.80;69.70
19496;DHT22;9888;48.606;9.630;2022-08-07T15:01:15;31.20;66.20
19496;DHT22;9888;48.606;9.630;2022-08-07T15:03:47;30.80;67.30
19496;DHT22;9888;48.606;9.630;2022-08-07T15:06:24;30.60;69.00
19496;DHT22;9888;48.606;9.630;2022-08-07T15:09:13;30.20;70.50
19496;DHT22;9888;48.606;9.630;2022-08-07T15:11:55;30.20;68.00
19496;DHT22;9888;48.606;9.630;2022-08-07T15:14:24;30.70;69.70
19496;DHT22;9888;48.606;9.630;2022-08-07T15:17:16;32.50;70.50
19496;DHT22;9888;48.606;9.630;2022-08-07T15:19:56;32.00;64.90
19496;DHT22;9888;48.606;9.630;2022-08-07T15:22:41;31.50;66.80
19496;DHT22;9888;48.606;9.630;2022-08-07T15:25:25;33.40;64.50
19496;DHT22;9888;48.606;9.630;2022-08-07T15:27:59;35.30;69.40
19496;DHT22;9888;48.606;9.630;2022-08-07T15:30:38;36.60;64.70
19496;DHT22;9888;48.606;9.630;2022-08-07T15:33:16;37.90;59.10
19496;DHT22;9888;48.606;9.630;2022-08-07T15:35:50;38.00;59.90
19496;DHT22;9888;48.606;9.630;2022-08-07T15:38:26;38.30;57.60
19496;DHT22;9888;48.606;9.630;2022-08-07T15:41:24;37.90;57.20
19496;DHT22;9888;48.606;9.630;2022-08-07T15:44:18;38.50;60.50
19496;DHT22;9888;48.606;9.630;2022-08-07T15:47:00;39.00;55.30
19496;DHT22;9888;48.606;9.630;2022-08-07T15:49:32;38.30;55.60
19496;DHT22;9888;48.606;9.630;2022-08-07T15:52:08;38.10;55.10
19496;DHT22;9888;48.606;9.630;2022-08-07T15:55:13;38.30;57.50
19496;DHT22;9888;48.606;9.630;2022-08-07T15:57:52;39.00;56.70
19496;DHT22;9888;48.606;9.630;2022-08-07T16:00:29;38.10;57.00
19496;DHT22;9888;48.606;9.630;2022-08-07T16:03:10;36.90;55.50
19496;DHT22;9888;48.606;9.630;2022-08-07T16:05:44;37.00;56.70
19496;DHT22;9888;48.606;9.630;2022-08-07T16:08:24;37.00;57.40
19496;DHT22;9888;48.606;9.630;2022-08-07T16:11:04;37.00;54.60
19496;DHT22;9888;48.606;9.630;2022-08-07T16:13:53;37.30;56.70
19496;DHT22;9888;48.606;9.630;2022-08-07T16:19:58;37.50;57.60
19496;DHT22;9888;48.606;9.630;2022-08-07T16:25:16;36.80;56.50
19496;DHT22;9888;48.606;9.630;2022-08-07T16:31:26;37.30;56.70
19496;DHT22;9888;48.606;9.630;2022-08-07T16:34:38;37.70;56.90
19496;DHT22;9888;48.606;9.630;2022-08-07T16:40:55;36.90;54.70
19496;DHT22;9888;48.606;9.630;2022-08-07T16:43:54;36.20;56.30
19496;DHT22;9888;48.606;9.630;2022-08-07T17:01:38;35.30;57.00
19496;DHT22;9888;48.606;9.630;2022-08-07T17:04:17;35.10;55.90
19496;DHT22;9888;48.606;9.630;2022-08-07T17:06:56;34.80;54.50
19496;DHT22;9888;48.606;9.630;2022-08-07T17:10:00;34.40;57.80
19496;DHT22;9888;48.606;9.630;2022-08-07T17:12:55;34.20;58.80
19496;DHT22;9888;48.606;9.630;2022-08-07T17:21:23;33.30;58.50
19496;DHT22;9888;48.606;9.630;2022-08-07T17:29:24;32.40;59.50
19496;DHT22;9888;48.606;9.630;2022-08-07T17:32:25;32.20;58.50
19496;DHT22;9888;48.606;9.630;2022-08-07T17:41:03;32.30;60.90
19496;DHT22;9888;48.606;9.630;2022-08-07T17:43:42;32.30;60.70
19496;DHT22;9888;48.606;9.630;2022-08-07T17:52:24;29.40;60.80
19496;DHT22;9888;48.606;9.630;2022-08-07T17:55:01;28.00;62.70
19496;DHT22;9888;48.606;9.630;2022-08-07T18:00:20;26.30;66.70
19496;DHT22;9888;48.606;9.630;2022-08-07T18:03:25;25.60;67.50
19496;DHT22;9888;48.606;9.630;2022-08-07T18:06:14;24.90;70.20
19496;DHT22;9888;48.606;9.630;2022-08-07T18:08:53;24.40;72.40
19496;DHT22;9888;48.606;9.630;2022-08-07T18:18:11;23.10;77.00
19496;DHT22;9888;48.606;9.630;2022-08-07T18:21:21;22.70;84.90
19496;DHT22;9888;48.606;9.630;2022-08-07T18:24:13;22.00;85.00
19496;DHT22;9888;48.606;9.630;2022-08-07T18:27:12;21.20;88.20
19496;DHT22;9888;48.606;9.630;2022-08-07T18:35:49;19.80;91.70
19496;DHT22;9888;48.606;9.630;2022-08-07T18:48:08;19.50;91.80
19496;DHT22;9888;48.606;9.630;2022-08-07T18:51:14;19.50;94.30
19496;DHT22;9888;48.606;9.630;2022-08-07T18:56:45;19.50;91.30
19496;DHT22;9888;48.606;9.630;2022-08-07T18:59:45;19.50;92.50
19496;DHT22;9888;48.606;9.630;2022-08-07T19:05:23;19.50;93.50
19496;DHT22;9888;48.606;9.630;2022-08-07T19:10:56;19.30;93.20
19496;DHT22;9888;48.606;9.630;2022-08-07T19:21:42;18.40;95.10
19496;DHT22;9888;48.606;9.630;2022-08-07T19:24:28;18.10;95.80
19496;DHT22;9888;48.606;9.630;2022-08-07T19:27:06;17.90;97.40
19496;DHT22;9888;48.606;9.630;2022-08-07T19:29:53;17.70;98.00
19496;DHT22;9888;48.606;9.630;2022-08-07T20:26:07;14.70;99.90
19496;DHT22;9888;48.606;9.630;2022-08-07T20:28:49;14.50;99.90
19496;DHT22;9888;48.606;9.630;2022-08-07T20:51:51;13.70;99.90
19496;DHT22;9888;48.606;9.630;2022-08-07T20:54:22;13.50;99.90
19496;DHT22;9888;48.606;9.630;2022-08-07T21:40:30;12.40;99.90
19496;DHT22;9888;48.606;9.630;2022-08-07T21:43:48;12.40;99.90
19496;DHT22;9888;48.606;9.630;2022-08-07T21:46:46;12.30;99.90
19496;DHT22;9888;48.606;9.630;2022-08-07T22:16:08;11.70;99.90
19496;DHT22;9888;48.606;9.630;2022-08-07T22:22:10;11.60;99.90
19496;DHT22;9888;48.606;9.630;2022-08-07T22:31:44;11.40;99.90
19496;DHT22;9888;48.606;9.630;2022-08-07T22:34:38;11.40;99.90
19496;DHT22;9888;48.606;9.630;2022-08-07T22:37:18;11.30;99.90
19496;DHT22;9888;48.606;9.630;2022-08-07T22:40:01;11.30;99.90
19496;DHT22;9888;48.606;9.630;2022-08-07T22:42:33;11.20;99.90
19496;DHT22;9888;48.606;9.630;2022-08-07T22:45:03;11.20;99.90
19496;DHT22;9888;48.606;9.630;2022-08-07T22:56:32;11.00;99.90
19496;DHT22;9888;48.606;9.630;2022-08-07T23:01:40;10.90;99.90
19496;DHT22;9888;48.606;9.630;2022-08-07T23:04:34;10.90;99.90
19496;DHT22;9888;48.606;9.630;2022-08-07T23:10:27;10.70;99.90
19496;DHT22;9888;48.606;9.630;2022-08-07T23:26:18;10.60;99.90
19496;DHT22;9888;48.606;9.630;2022-08-07T23:29:10;10.50;99.90
19496;DHT22;9888;48.606;9.630;2022-08-07T23:34:54;10.40;99.90
19496;DHT22;9888;48.606;9.630;2022-08-07T23:37:49;10.40;99.90
19496;DHT22;9888;48.606;9.630;2022-08-07T23:40:34;10.30;99.90
19496;DHT22;9888;48.606;9.630;2022-08-07T23:52:05;10.30;99.90
19496;DHT22;9888;48.606;9.630;2022-08-07T23:54:54;10.20;99.90
